Time;durP1;ratioP1;P1;durP2;ratioP2;P2;SDS_P1;SDS_P2;PMS_P1;PMS_P2;Temp;Humidity;BMP_temperature;BMP_pressure;BME280_temperature;BME280_humidity;BME280_pressure;Samples;Min_cycle;Max_cycle;Signal;HPM_P1;HPM_P2
2021/03/30 00:00:22;;;;;;;8.00;3.80;;;7.80;95.10;;;;;;5032049;28;20037;-56
2021/03/30 00:02:48;;;;;;;6.53;2.80;;;7.80;95.70;;;;;;5030433;28;20033;-59
2021/03/30 00:05:14;;;;;;;7.55;2.72;;;7.70;96.80;;;;;;5032200;28;20040;-57
2021/03/30 00:07:40;;;;;;;9.77;3.03;;;7.60;97.50;;;;;;5019969;28;20033;-58
2021/03/30 00:10:09;;;;;;;10.80;3.05;;;7.50;97.90;;;;;;5031205;28;20044;-59
2021/03/30 00:12:35;;;;;;;11.98;3.70;;;7.40;98.50;;;;;;5030477;28;20041;-57
2021/03/30 00:15:00;;;;;;;7.38;3.05;;;7.30;98.90;;;;;;5024162;28;20033;-60
2021/03/30 00:17:26;;;;;;;11.15;3.58;;;7.20;99.30;;;;;;5030573;28;20037;-59
2021/03/30 00:19:52;;;;;;;7.47;3.40;;;7.20;99.70;;;;;;5027094;28;20037;-59
2021/03/30 00:22:17;;;;;;;8.07;2.80;;;7.20;99.90;;;;;;5016838;28;20083;-59
2021/03/30 00:24:43;;;;;;;9.02;3.78;;;7.20;99.90;;;;;;5019003;28;20043;-59
2021/03/30 00:27:08;;;;;;;7.15;3.60;;;7.20;99.90;;;;;;5029419;28;20033;-59
2021/03/30 00:29:42;;;;;;;7.63;3.00;;;7.20;99.90;;;;;;5031197;28;20429;-59
2021/03/30 00:32:17;;;;;;;6.65;2.90;;;7.30;99.90;;;;;;4977902;28;20056;-59
2021/03/30 00:34:43;;;;;;;13.25;4.78;;;7.30;99.90;;;;;;5011015;28;20524;-58
2021/03/30 00:37:09;;;;;;;13.90;3.60;;;7.30;99.90;;;;;;5000009;28;20018;-59
2021/03/30 00:39:34;;;;;;;5.55;3.00;;;7.30;99.90;;;;;;5011157;28;20033;-60
2021/03/30 00:42:00;;;;;;;9.18;3.17;;;7.20;99.90;;;;;;5010441;28;20045;-59
2021/03/30 00:44:26;;;;;;;10.32;3.85;;;7.20;99.90;;;;;;5010919;28;20041;-61
2021/03/30 00:46:52;;;;;;;9.65;4.20;;;7.20;99.90;;;;;;5011249;28;20463;-59
2021/03/30 00:49:22;;;;;;;17.67;3.42;;;7.20;99.90;;;;;;5007781;28;20060;-59
2021/03/30 00:51:49;;;;;;;5.38;2.95;;;7.10;99.90;;;;;;5011935;28;20168;-61
2021/03/30 00:54:15;;;;;;;6.88;2.70;;;7.10;99.90;;;;;;5011529;28;20021;-60
2021/03/30 00:56:44;;;;;;;7.07;2.90;;;7.00;99.90;;;;;;5010138;28;20029;-59
2021/03/30 00:59:12;;;;;;;10.68;3.17;;;7.00;99.90;;;;;;5007750;28;20032;-59
2021/03/30 01:01:37;;;;;;;13.98;3.67;;;7.00;99.90;;;;;;5010680;28;20037;-60
2021/03/30 01:04:03;;;;;;;11.50;3.33;;;6.80;99.90;;;;;;5010651;28;20034;-59
2021/03/30 01:06:29;;;;;;;9.60;3.15;;;6.70;99.90;;;;;;5010535;28;20029;-60
2021/03/30 01:09:10;;;;;;;11.10;3.80;;;6.60;99.90;;;;;;5010364;28;20026;-60
2021/03/30 01:11:54;;;;;;;7.45;3.55;;;6.60;99.90;;;;;;5009760;28;20110;-60
2021/03/30 01:14:41;;;;;;;7.50;3.00;;;6.50;99.90;;;;;;5005892;28;20038;-61
2021/03/30 01:17:34;;;;;;;8.40;3.22;;;6.40;99.90;;;;;;5009490;28;20041;-60
2021/03/30 01:20:15;;;;;;;7.10;3.78;;;6.40;99.90;;;;;;5005210;28;20037;-59
2021/03/30 01:22:53;;;;;;;9.82;3.95;;;6.30;99.90;;;;;;5010020;28;20026;-59
2021/03/30 01:25:20;;;;;;;9.40;3.72;;;6.40;99.90;;;;;;5010245;28;20032;-59
2021/03/30 01:27:54;;;;;;;12.82;4.13;;;6.30;99.90;;;;;;5010023;28;20037;-61
2021/03/30 01:30:21;;;;;;;7.75;3.15;;;6.40;99.90;;;;;;5007994;28;20074;-60
2021/03/30 01:33:08;;;;;;;8.65;3.80;;;6.30;99.90;;;;;;4972319;28;20466;-59
2021/03/30 01:35:36;;;;;;;6.63;3.10;;;6.30;99.90;;;;;;5031179;28;20049;-60
2021/03/30 01:38:03;;;;;;;15.10;3.17;;;6.20;99.90;;;;;;5018704;28;20025;-59
2021/03/30 01:40:34;;;;;;;11.65;3.47;;;6.20;99.90;;;;;;5036518;28;20483;-59
2021/03/30 01:43:01;;;;;;;8.95;3.05;;;6.20;99.90;;;;;;5027383;28;20532;-58
2021/03/30 01:45:28;;;;;;;12.05;3.75;;;6.20;99.90;;;;;;5030114;28;20528;-60
2021/03/30 01:47:55;;;;;;;8.05;3.25;;;6.30;99.90;;;;;;5020485;28;20045;-60
2021/03/30 01:50:22;;;;;;;9.93;3.67;;;6.30;99.90;;;;;;5039406;28;20048;-59
2021/03/30 01:52:49;;;;;;;8.07;3.20;;;6.30;99.90;;;;;;5029015;28;20030;-60
2021/03/30 01:55:17;;;;;;;8.98;3.65;;;6.30;99.90;;;;;;5028689;28;20030;-60
2021/03/30 01:57:55;;;;;;;6.90;3.30;;;6.30;99.90;;;;;;5027163;28;21705;-61
2021/03/30 02:00:23;;;;;;;8.00;3.22;;;6.30;99.90;;;;;;5023180;28;20116;-60
2021/03/30 02:02:49;;;;;;;8.25;3.30;;;6.30;99.90;;;;;;5028383;28;20503;-59
2021/03/30 02:05:16;;;;;;;11.07;4.45;;;6.20;99.90;;;;;;5029034;28;20029;-60
2021/03/30 02:07:42;;;;;;;7.10;3.60;;;6.10;99.90;;;;;;5040361;28;20020;-60
2021/03/30 02:10:19;;;;;;;11.48;3.88;;;6.10;99.90;;;;;;5028897;28;20021;-58
2021/03/30 02:12:45;;;;;;;12.07;3.50;;;6.00;99.90;;;;;;5032223;28;20037;-58
2021/03/30 02:15:15;;;;;;;8.68;3.75;;;6.10;99.90;;;;;;5032818;28;20032;-59
2021/03/30 02:18:03;;;;;;;10.40;3.17;;;6.10;99.90;;;;;;5027623;28;20042;-57
2021/03/30 02:20:36;;;;;;;11.82;3.63;;;6.10;99.90;;;;;;5026977;28;20545;-58
2021/03/30 02:23:06;;;;;;;8.95;3.20;;;6.00;99.90;;;;;;5029021;28;20048;-58
2021/03/30 02:25:33;;;;;;;8.40;3.08;;;6.10;99.90;;;;;;5029239;28;20100;-60
2021/03/30 02:28:04;;;;;;;6.28;3.15;;;6.10;99.90;;;;;;5034071;28;20080;-59
2021/03/30 02:30:33;;;;;;;9.90;3.72;;;6.10;99.90;;;;;;5034556;28;20029;-60
2021/03/30 02:32:59;;;;;;;13.35;3.63;;;6.00;99.90;;;;;;4991346;28;20495;-59
2021/03/30 02:35:25;;;;;;;13.70;3.83;;;5.90;99.90;;;;;;5028288;28;20029;-60
2021/03/30 02:37:52;;;;;;;8.05;3.60;;;5.90;99.90;;;;;;5028979;28;20114;-59
2021/03/30 02:40:21;;;;;;;10.77;4.28;;;5.80;99.90;;;;;;5028128;28;20018;-59
2021/03/30 02:42:47;;;;;;;7.55;3.95;;;5.80;99.90;;;;;;5023711;28;20073;-59
2021/03/30 02:45:16;;;;;;;8.20;3.35;;;5.70;99.90;;;;;;5025649;28;20037;-59
2021/03/30 02:47:44;;;;;;;12.95;3.63;;;5.60;99.90;;;;;;5028263;28;20044;-60
2021/03/30 02:50:11;;;;;;;9.68;4.03;;;5.60;99.90;;;;;;5028851;28;20056;-58
2021/03/30 02:52:37;;;;;;;10.18;4.15;;;5.60;99.90;;;;;;5027536;28;20032;-60
2021/03/30 02:55:05;;;;;;;6.60;3.15;;;5.60;99.90;;;;;;5028425;28;20025;-58
2021/03/30 02:57:31;;;;;;;7.45;3.80;;;5.50;99.90;;;;;;5028408;28;20029;-60
2021/03/30 02:59:57;;;;;;;10.85;3.58;;;5.50;99.90;;;;;;5028323;28;20029;-59
2021/03/30 03:02:24;;;;;;;8.00;4.00;;;5.40;99.90;;;;;;5028298;28;20771;-60
2021/03/30 03:04:50;;;;;;;10.60;3.65;;;5.40;99.90;;;;;;5028122;28;20076;-59
2021/03/30 03:07:17;;;;;;;9.00;3.30;;;5.40;99.90;;;;;;5028482;28;20033;-58
2021/03/30 03:09:43;;;;;;;10.25;3.80;;;5.40;99.90;;;;;;5026502;28;20073;-60
2021/03/30 03:12:13;;;;;;;9.65;4.03;;;5.40;99.90;;;;;;5028472;28;20021;-59
2021/03/30 03:14:42;;;;;;;8.15;3.60;;;5.40;99.90;;;;;;5028658;28;20049;-59
2021/03/30 03:17:09;;;;;;;5.75;3.63;;;5.40;99.90;;;;;;5027672;28;20021;-59
2021/03/30 03:19:36;;;;;;;9.40;3.92;;;5.30;99.90;;;;;;5028385;28;20021;-61
2021/03/30 03:22:04;;;;;;;11.00;4.05;;;5.30;99.90;;;;;;5028366;28;20025;-60
2021/03/30 03:24:30;;;;;;;9.27;3.75;;;5.20;99.90;;;;;;5028421;28;20033;-60
2021/03/30 03:26:56;;;;;;;11.73;4.20;;;5.20;99.90;;;;;;5028520;28;20042;-59
2021/03/30 03:29:22;;;;;;;11.23;4.13;;;5.20;99.90;;;;;;5031385;28;20037;-62
2021/03/30 03:31:48;;;;;;;8.95;3.83;;;5.20;99.90;;;;;;5028032;28;20096;-59
2021/03/30 03:34:18;;;;;;;9.07;3.45;;;5.20;99.90;;;;;;4972606;28;20064;-57
2021/03/30 03:36:49;;;;;;;11.50;4.03;;;5.20;99.90;;;;;;5000868;28;20049;-59
2021/03/30 03:39:18;;;;;;;8.55;4.03;;;5.10;99.90;;;;;;5012374;28;20092;-59
2021/03/30 03:41:44;;;;;;;8.50;3.75;;;5.10;99.90;;;;;;4998459;28;20110;-60
2021/03/30 03:44:11;;;;;;;13.27;3.08;;;5.10;99.90;;;;;;5012149;28;20429;-60
2021/03/30 03:46:37;;;;;;;8.20;4.80;;;5.20;99.90;;;;;;5000719;28;20038;-59
2021/03/30 03:49:05;;;;;;;8.48;3.35;;;5.10;99.90;;;;;;5026383;28;20025;-60
2021/03/30 03:51:36;;;;;;;7.78;3.35;;;5.10;99.90;;;;;;5012124;28;20030;-59
2021/03/30 03:54:06;;;;;;;10.50;3.80;;;5.00;99.90;;;;;;5011778;28;20088;-59
2021/03/30 03:56:41;;;;;;;15.32;3.45;;;5.00;99.90;;;;;;5011809;28;20564;-58
2021/03/30 03:59:12;;;;;;;7.13;3.53;;;5.00;99.90;;;;;;4999786;28;22052;-60
2021/03/30 04:01:44;;;;;;;7.18;3.85;;;5.00;99.90;;;;;;5010777;28;20014;-59
2021/03/30 04:04:19;;;;;;;7.78;3.10;;;5.00;99.90;;;;;;5004327;28;20140;-60
2021/03/30 04:06:52;;;;;;;11.27;3.53;;;5.00;99.90;;;;;;5010616;28;20021;-57
2021/03/30 04:09:19;;;;;;;13.02;3.80;;;5.00;99.90;;;;;;5015533;28;20088;-57
2021/03/30 04:11:48;;;;;;;10.05;3.92;;;4.90;99.90;;;;;;5006956;28;20034;-59
2021/03/30 04:14:14;;;;;;;8.95;4.38;;;4.80;99.90;;;;;;5012450;28;20026;-58
2021/03/30 04:16:40;;;;;;;7.13;3.75;;;4.80;99.90;;;;;;5000270;28;20498;-59
2021/03/30 04:19:12;;;;;;;12.93;3.70;;;4.80;99.90;;;;;;5011505;28;20030;-59
2021/03/30 04:21:39;;;;;;;9.30;3.90;;;4.70;99.90;;;;;;4998812;28;20092;-57
2021/03/30 04:24:07;;;;;;;8.10;3.65;;;4.60;99.90;;;;;;5010366;28;20402;-59
2021/03/30 04:26:33;;;;;;;6.20;3.15;;;4.60;99.90;;;;;;5010776;28;20104;-58
2021/03/30 04:28:58;;;;;;;7.82;3.45;;;4.50;99.90;;;;;;5004008;28;20112;-57
2021/03/30 04:31:24;;;;;;;14.73;4.35;;;4.50;99.90;;;;;;5009711;28;20037;-57
2021/03/30 04:33:50;;;;;;;9.68;3.22;;;4.50;99.90;;;;;;4968283;28;20153;-58
2021/03/30 04:36:16;;;;;;;7.15;3.58;;;4.50;99.90;;;;;;5007904;28;20538;-59
2021/03/30 04:38:41;;;;;;;17.70;3.53;;;4.50;99.90;;;;;;5004778;28;20061;-59
2021/03/30 04:41:07;;;;;;;7.88;3.35;;;4.60;99.90;;;;;;5019272;28;20445;-59
2021/03/30 04:43:33;;;;;;;13.55;4.03;;;4.60;99.90;;;;;;5016510;28;20085;-57
2021/03/30 04:45:59;;;;;;;6.13;3.38;;;4.60;99.90;;;;;;5011688;28;20034;-59
2021/03/30 04:48:24;;;;;;;7.70;3.45;;;4.60;99.90;;;;;;5010330;28;20037;-58
2021/03/30 04:50:50;;;;;;;9.38;3.85;;;4.50;99.90;;;;;;5010965;28;20041;-59
2021/03/30 04:53:15;;;;;;;7.30;3.67;;;4.50;99.90;;;;;;5018903;28;20052;-59
2021/03/30 04:55:41;;;;;;;15.40;4.18;;;4.50;99.90;;;;;;5019156;28;20109;-58
2021/03/30 04:58:07;;;;;;;6.60;3.40;;;4.40;99.90;;;;;;5018781;28;20022;-60
2021/03/30 05:00:32;;;;;;;9.00;3.50;;;4.40;99.90;;;;;;5010076;28;20032;-59
2021/03/30 05:02:58;;;;;;;6.78;3.83;;;4.40;99.90;;;;;;5000079;28;20018;-59
2021/03/30 05:05:24;;;;;;;8.68;3.95;;;4.40;99.90;;;;;;5010230;28;20597;-59
2021/03/30 05:07:49;;;;;;;7.95;3.53;;;4.40;99.90;;;;;;5010166;28;20041;-59
2021/03/30 05:10:15;;;;;;;7.35;3.67;;;4.40;99.90;;;;;;4997457;28;20108;-58
2021/03/30 05:12:41;;;;;;;8.52;3.70;;;4.30;99.90;;;;;;5010201;28;20055;-59
2021/03/30 05:15:07;;;;;;;8.13;3.47;;;4.30;99.90;;;;;;5020215;28;20060;-59
2021/03/30 05:17:34;;;;;;;8.02;3.97;;;4.30;99.90;;;;;;5008421;28;20750;-59
2021/03/30 05:19:59;;;;;;;10.35;4.10;;;4.30;99.90;;;;;;5001299;28;20060;-58
2021/03/30 05:22:25;;;;;;;12.07;3.75;;;4.30;99.90;;;;;;5007446;28;20100;-60
2021/03/30 05:24:51;;;;;;;10.07;3.55;;;4.30;99.90;;;;;;5010866;28;20029;-60
2021/03/30 05:27:16;;;;;;;9.63;3.90;;;4.40;99.90;;;;;;4997999;28;20561;-60
2021/03/30 05:29:45;;;;;;;12.77;3.83;;;4.40;99.90;;;;;;5009677;28;20399;-59
2021/03/30 05:32:12;;;;;;;10.05;3.95;;;4.40;99.90;;;;;;5001076;28;20025;-60
2021/03/30 05:34:38;;;;;;;16.25;5.55;;;4.50;99.90;;;;;;4994892;28;20050;-59
2021/03/30 05:37:04;;;;;;;11.30;4.07;;;4.50;99.90;;;;;;5009905;28;20029;-59
2021/03/30 05:39:31;;;;;;;10.95;3.30;;;4.50;99.90;;;;;;4998388;28;20037;-60
2021/03/30 05:41:57;;;;;;;7.57;3.53;;;4.60;99.90;;;;;;5008857;28;20458;-60
2021/03/30 05:44:23;;;;;;;11.60;3.38;;;4.70;99.90;;;;;;5019334;28;20106;-60
2021/03/30 05:47:03;;;;;;;6.65;3.20;;;4.80;99.90;;;;;;5025047;28;20041;-59
2021/03/30 05:49:29;;;;;;;7.20;3.13;;;4.90;99.90;;;;;;5014187;28;20064;-60
2021/03/30 05:51:57;;;;;;;8.48;3.30;;;5.00;99.90;;;;;;5020228;28;20029;-61
2021/03/30 05:54:24;;;;;;;7.55;4.10;;;5.10;99.90;;;;;;5010047;28;20022;-60
2021/03/30 05:56:52;;;;;;;10.48;3.22;;;5.10;99.90;;;;;;5009271;28;20030;-58
2021/03/30 05:59:18;;;;;;;9.98;3.92;;;5.20;99.90;;;;;;5021636;28;20080;-61
2021/03/30 06:01:44;;;;;;;13.23;3.80;;;5.40;99.90;;;;;;5017915;28;20044;-59
2021/03/30 06:04:10;;;;;;;7.55;4.30;;;5.60;99.90;;;;;;5013428;28;20105;-60
2021/03/30 06:06:36;;;;;;;13.18;3.53;;;6.10;99.90;;;;;;5019770;28;20034;-60
2021/03/30 06:09:05;;;;;;;7.32;3.63;;;6.60;99.90;;;;;;5023851;28;20040;-60
2021/03/30 06:11:31;;;;;;;12.43;3.45;;;7.20;99.90;;;;;;5019272;28;20021;-60
2021/03/30 06:13:58;;;;;;;8.55;3.47;;;7.90;99.90;;;;;;5017382;28;20033;-59
2021/03/30 06:16:33;;;;;;;6.75;3.17;;;8.80;99.90;;;;;;5010419;28;20113;-61
2021/03/30 06:19:00;;;;;;;5.40;3.40;;;9.90;97.70;;;;;;5009541;28;20092;-60
2021/03/30 06:21:26;;;;;;;11.10;3.83;;;10.00;96.80;;;;;;5008880;28;20017;-61
2021/03/30 06:23:51;;;;;;;5.95;3.78;;;9.90;96.30;;;;;;5014536;28;20036;-60
2021/03/30 06:26:17;;;;;;;9.25;3.60;;;9.50;96.70;;;;;;5025007;28;20032;-60
2021/03/30 06:28:43;;;;;;;8.43;3.90;;;9.30;97.10;;;;;;5001548;28;20045;-59
2021/03/30 06:31:14;;;;;;;14.27;3.72;;;9.10;97.40;;;;;;5009111;28;20054;-61
2021/03/30 06:33:55;;;;;;;10.82;3.70;;;9.00;97.70;;;;;;4975979;28;20067;-59
2021/03/30 06:36:25;;;;;;;11.90;3.85;;;9.00;97.70;;;;;;5030039;28;20033;-60
2021/03/30 06:38:54;;;;;;;13.20;4.05;;;8.90;97.70;;;;;;5028954;28;20060;-60
2021/03/30 06:41:53;;;;;;;9.40;3.47;;;8.80;98.20;;;;;;5017478;28;20391;-61
2021/03/30 06:44:26;;;;;;;12.13;4.70;;;9.10;98.20;;;;;;5024446;28;20041;-61
2021/03/30 06:47:04;;;;;;;21.75;4.15;;;9.80;97.10;;;;;;5044134;28;20037;-62
2021/03/30 06:49:33;;;;;;;12.00;4.47;;;10.40;96.80;;;;;;5030592;28;20557;-62
2021/03/30 06:52:00;;;;;;;9.38;3.88;;;11.20;95.80;;;;;;5030913;28;20398;-61
2021/03/30 06:54:26;;;;;;;8.80;3.60;;;11.60;94.60;;;;;;5028673;28;20025;-61
2021/03/30 06:56:57;;;;;;;8.38;3.97;;;12.40;93.90;;;;;;5027936;28;20118;-61
2021/03/30 06:59:23;;;;;;;11.30;4.88;;;13.50;91.90;;;;;;5028971;28;20497;-61
2021/03/30 07:01:53;;;;;;;10.20;4.32;;;14.80;88.10;;;;;;5031074;28;20723;-59
2021/03/30 07:04:18;;;;;;;13.25;5.20;;;16.20;80.30;;;;;;5024487;28;20108;-59
2021/03/30 07:06:53;;;;;;;11.68;4.95;;;16.90;75.80;;;;;;5030955;28;20141;-59
2021/03/30 07:09:23;;;;;;;15.60;4.15;;;17.00;71.80;;;;;;5038234;28;20508;-57
2021/03/30 07:11:49;;;;;;;14.13;4.55;;;17.30;70.30;;;;;;5042690;28;20087;-60
2021/03/30 07:14:15;;;;;;;10.20;4.00;;;17.70;66.90;;;;;;5033071;28;20057;-56
2021/03/30 07:16:53;;;;;;;8.50;4.72;;;18.00;65.10;;;;;;5018605;28;20045;-59
2021/03/30 07:19:23;;;;;;;11.63;4.30;;;18.30;62.10;;;;;;5032369;28;20026;-61
2021/03/30 07:21:58;;;;;;;9.80;4.20;;;18.30;62.00;;;;;;5019649;28;20029;-61
2021/03/30 07:24:38;;;;;;;12.98;4.07;;;18.50;61.00;;;;;;5032897;28;20392;-61
2021/03/30 07:27:05;;;;;;;7.55;3.80;;;19.10;60.20;;;;;;5020744;28;20029;-60
2021/03/30 07:29:40;;;;;;;10.95;4.57;;;19.20;57.60;;;;;;5044516;28;20128;-61
2021/03/30 07:32:13;;;;;;;9.85;4.10;;;19.30;57.20;;;;;;5032553;28;20100;-61
2021/03/30 07:34:49;;;;;;;9.50;4.75;;;20.20;56.80;;;;;;4997364;28;20046;-61
2021/03/30 07:37:24;;;;;;;12.63;4.13;;;20.90;54.70;;;;;;5031110;28;20057;-60
2021/03/30 07:39:54;;;;;;;10.02;4.68;;;21.00;52.80;;;;;;5015987;28;20022;-60
2021/03/30 07:42:20;;;;;;;7.40;4.35;;;21.10;51.60;;;;;;5030850;28;20029;-61
2021/03/30 07:44:49;;;;;;;13.38;4.50;;;21.30;50.90;;;;;;5021275;28;20029;-61
2021/03/30 07:47:19;;;;;;;16.88;4.93;;;21.70;49.00;;;;;;5028633;28;20029;-61
2021/03/30 07:49:48;;;;;;;14.02;4.80;;;21.80;49.00;;;;;;5021829;28;20033;-60
2021/03/30 07:52:29;;;;;;;8.38;4.32;;;22.10;46.80;;;;;;5031241;28;20021;-60
2021/03/30 07:55:14;;;;;;;12.77;4.40;;;22.40;48.20;;;;;;5026188;28;20033;-61
2021/03/30 07:58:16;;;;;;;7.75;4.32;;;22.30;47.10;;;;;;5029921;28;20108;-61
2021/03/30 08:00:47;;;;;;;11.30;4.80;;;22.50;46.70;;;;;;5032000;28;20040;-61
2021/03/30 08:03:18;;;;;;;7.78;4.10;;;22.50;45.90;;;;;;5018531;28;20026;-61
2021/03/30 08:05:44;;;;;;;9.32;4.15;;;22.50;45.20;;;;;;5031487;28;20450;-59
2021/03/30 08:08:23;;;;;;;11.18;4.82;;;22.50;45.80;;;;;;5031250;28;20033;-61
2021/03/30 08:10:52;;;;;;;12.30;4.90;;;23.10;44.70;;;;;;5028851;28;20048;-61
2021/03/30 08:13:46;;;;;;;7.55;3.92;;;22.80;44.60;;;;;;5024007;28;20120;-59
2021/03/30 08:16:14;;;;;;;10.30;4.13;;;22.80;42.40;;;;;;5028765;28;20022;-60
2021/03/30 08:18:42;;;;;;;7.03;4.60;;;22.80;43.30;;;;;;5029688;28;20021;-60
2021/03/30 08:21:12;;;;;;;10.95;4.40;;;22.80;41.80;;;;;;5030896;28;20108;-59
2021/03/30 08:23:53;;;;;;;6.43;4.20;;;23.40;41.90;;;;;;5031519;28;20025;-59
2021/03/30 08:26:28;;;;;;;7.50;4.20;;;23.70;41.90;;;;;;5026600;28;20068;-60
2021/03/30 08:29:02;;;;;;;12.07;4.25;;;24.00;41.20;;;;;;5029054;28;20541;-60
2021/03/30 08:31:31;;;;;;;11.55;4.15;;;23.70;41.40;;;;;;5029107;28;20391;-60
2021/03/30 08:33:59;;;;;;;12.07;4.05;;;24.00;41.20;;;;;;4985261;28;20059;-60
2021/03/30 08:36:25;;;;;;;10.05;4.22;;;23.90;42.00;;;;;;5028104;28;20071;-60
2021/03/30 08:38:53;;;;;;;11.60;3.95;;;24.00;42.20;;;;;;5031152;28;20053;-60
2021/03/30 08:41:53;;;;;;;6.30;3.50;;;23.70;40.80;;;;;;5030956;28;20036;-59
2021/03/30 08:44:40;;;;;;;6.95;3.85;;;23.80;43.50;;;;;;5002251;28;20440;-63
2021/03/30 08:47:07;;;;;;;9.23;3.40;;;23.90;42.70;;;;;;5030539;28;20033;-61
2021/03/30 08:49:43;;;;;;;6.45;3.75;;;23.80;42.10;;;;;;5030766;28;20128;-60
2021/03/30 08:52:11;;;;;;;7.68;3.25;;;24.00;41.90;;;;;;5030677;28;20051;-59
2021/03/30 08:54:53;;;;;;;6.30;3.83;;;24.30;41.50;;;;;;5031084;28;20069;-61
2021/03/30 08:57:36;;;;;;;7.43;3.40;;;24.30;41.50;;;;;;5029987;28;20491;-60
2021/03/30 09:00:07;;;;;;;;;;;24.00;40.90;;;;;;5031642;28;20037;-61
2021/03/30 09:02:33;;;;;;;9.90;3.63;;;24.30;41.20;;;;;;5029425;28;19913;-61
2021/03/30 09:04:58;;;;;;;6.72;3.50;;;24.80;40.20;;;;;;5030711;28;20040;-61
2021/03/30 09:07:25;;;;;;;11.25;3.95;;;24.10;40.20;;;;;;5029365;28;20075;-61
2021/03/30 09:10:06;;;;;;;11.60;3.80;;;24.10;41.20;;;;;;5033288;28;20067;-61
2021/03/30 09:12:31;;;;;;;11.82;4.10;;;24.50;41.20;;;;;;5029980;28;20022;-61
2021/03/30 09:15:09;;;;;;;8.55;4.00;;;24.10;41.50;;;;;;5031014;28;20037;-61
2021/03/30 09:17:51;;;;;;;8.05;4.28;;;24.10;40.50;;;;;;5026453;28;20025;-59
2021/03/30 09:20:18;;;;;;;8.05;4.00;;;24.20;41.60;;;;;;5028687;28;20041;-61
2021/03/30 09:22:46;;;;;;;9.85;4.63;;;24.70;41.40;;;;;;5025965;28;20025;-61
2021/03/30 09:28:15;;;;;;;10.45;4.57;;;24.70;40.40;;;;;;5006049;28;20033;-60
2021/03/30 09:30:43;;;;;;;10.75;4.55;;;24.40;40.60;;;;;;5029087;28;20087;-60
2021/03/30 09:33:09;;;;;;;8.85;5.05;;;25.10;39.70;;;;;;5032106;28;20049;-61
2021/03/30 09:35:35;;;;;;;10.90;4.95;;;24.80;39.00;;;;;;4994437;28;20041;-61
2021/03/30 09:38:03;;;;;;;8.32;5.15;;;25.20;39.00;;;;;;5027741;28;20029;-62
2021/03/30 09:40:39;;;;;;;10.07;5.85;;;24.90;38.90;;;;;;5028454;28;20044;-62
2021/03/30 09:43:16;;;;;;;11.73;5.55;;;24.70;39.90;;;;;;5015440;28;20514;-62
2021/03/30 09:45:43;;;;;;;11.13;5.40;;;24.10;39.80;;;;;;5018487;28;20098;-62
2021/03/30 09:48:12;;;;;;;12.50;5.45;;;23.70;40.80;;;;;;5016944;28;20104;-61
2021/03/30 09:50:42;;;;;;;9.52;6.05;;;23.80;41.50;;;;;;5022275;28;20037;-61
2021/03/30 09:53:09;;;;;;;11.30;4.60;;;24.50;39.90;;;;;;5014190;28;20215;-62
2021/03/30 09:55:37;;;;;;;14.60;5.32;;;24.00;40.30;;;;;;5018512;28;20022;-62
2021/03/30 09:58:08;;;;;;;12.07;5.15;;;23.60;41.10;;;;;;5020346;28;20442;-62
2021/03/30 10:00:37;;;;;;;13.38;5.18;;;23.80;41.60;;;;;;5015965;28;20404;-61
2021/03/30 10:03:04;;;;;;;13.60;5.60;;;23.80;40.90;;;;;;5015493;28;20091;-61
2021/03/30 10:05:35;;;;;;;10.10;5.65;;;23.70;41.00;;;;;;5011934;28;20052;-61
2021/03/30 10:08:01;;;;;;;12.55;5.97;;;24.00;40.80;;;;;;5014030;28;20040;-61
2021/03/30 10:10:43;;;;;;;13.77;7.30;;;23.40;40.80;;;;;;5015116;28;20537;-61
2021/03/30 10:13:26;;;;;;;14.38;7.93;;;23.30;40.60;;;;;;5015901;28;20496;-61
2021/03/30 10:15:53;;;;;;;11.73;5.82;;;23.00;41.10;;;;;;5014285;28;20022;-61
2021/03/30 10:18:22;;;;;;;10.95;6.60;;;22.90;41.70;;;;;;5020008;28;20021;-61
2021/03/30 10:20:55;;;;;;;11.95;6.80;;;22.90;41.80;;;;;;5014703;28;20418;-61
2021/03/30 10:23:24;;;;;;;;;;;23.00;42.10;;;;;;5016983;28;20521;-60
2021/03/30 10:25:50;;;;;;;15.15;9.85;;;23.20;41.40;;;;;;5010641;28;20139;-59
2021/03/30 10:28:28;;;;;;;18.27;9.70;;;23.20;39.50;;;;;;5024625;28;20022;-61
2021/03/30 10:31:06;;;;;;;17.13;8.93;;;23.10;39.40;;;;;;5031393;28;20025;-60
2021/03/30 10:33:48;;;;;;;13.82;8.70;;;23.10;38.70;;;;;;5028902;28;20033;-61
2021/03/30 10:36:14;;;;;;;16.25;8.80;;;23.20;39.60;;;;;;4998609;28;20057;-60
2021/03/30 10:38:41;;;;;;;19.15;8.73;;;23.20;38.80;;;;;;5029044;28;20029;-61
2021/03/30 10:41:11;;;;;;;16.75;7.70;;;22.90;37.40;;;;;;5021590;28;20036;-60
2021/03/30 10:43:38;;;;;;;16.30;9.15;;;22.70;38.20;;;;;;5026638;28;20040;-61
2021/03/30 10:46:21;;;;;;;15.02;7.93;;;22.30;39.00;;;;;;5043535;28;20022;-60
2021/03/30 10:49:04;;;;;;;15.20;8.98;;;22.40;41.20;;;;;;5026916;28;20037;-59
2021/03/30 10:51:32;;;;;;;13.70;8.30;;;22.30;39.40;;;;;;5025750;28;20505;-61
2021/03/30 10:54:03;;;;;;;13.20;6.60;;;22.40;40.10;;;;;;5014573;28;20059;-59
2021/03/30 10:56:29;;;;;;;13.68;6.20;;;22.40;39.50;;;;;;5026154;28;20029;-61
2021/03/30 10:58:55;;;;;;;16.50;8.43;;;22.50;37.50;;;;;;5013209;28;20025;-61
2021/03/30 11:01:21;;;;;;;11.25;6.35;;;22.50;37.80;;;;;;5025614;28;20540;-61
2021/03/30 11:03:46;;;;;;;14.07;7.00;;;22.20;37.20;;;;;;5028066;28;20034;-61
2021/03/30 11:06:12;;;;;;;10.77;5.63;;;22.20;38.10;;;;;;5026124;28;20102;-61
2021/03/30 11:08:38;;;;;;;10.15;5.50;;;22.30;36.60;;;;;;5029622;28;20063;-59
2021/03/30 11:11:03;;;;;;;8.27;4.75;;;22.10;36.90;;;;;;5024896;28;20083;-62
2021/03/30 11:13:29;;;;;;;11.43;5.78;;;22.20;39.70;;;;;;5018618;28;20033;-60
2021/03/30 11:15:54;;;;;;;12.80;6.20;;;22.30;37.40;;;;;;5025233;28;20079;-61
2021/03/30 11:18:20;;;;;;;9.13;4.93;;;22.40;38.10;;;;;;5022574;28;20544;-62
2021/03/30 11:20:46;;;;;;;10.98;4.60;;;22.20;37.80;;;;;;5015892;28;20083;-61
2021/03/30 11:23:11;;;;;;;10.30;4.88;;;22.30;37.40;;;;;;5019158;28;20037;-61
2021/03/30 11:25:37;;;;;;;8.23;4.28;;;22.40;35.70;;;;;;5022955;28;20028;-61
2021/03/30 11:28:07;;;;;;;7.13;4.05;;;22.50;35.90;;;;;;5026339;28;20116;-59
2021/03/30 11:30:39;;;;;;;8.98;4.75;;;22.40;36.50;;;;;;5027805;28;20056;-61
2021/03/30 11:38:31;;;;;;;5.07;3.33;;;22.30;35.60;;;;;;4980340;28;20033;-61
2021/03/30 11:40:57;;;;;;;13.85;5.13;;;22.20;36.00;;;;;;5021276;28;20045;-61
2021/03/30 11:43:22;;;;;;;9.73;3.65;;;22.10;35.60;;;;;;5032740;28;20855;-61
2021/03/30 11:45:48;;;;;;;7.95;3.85;;;22.10;35.70;;;;;;5029938;28;20518;-61
2021/03/30 11:48:13;;;;;;;9.55;3.75;;;22.00;34.90;;;;;;5028956;28;20025;-59
2021/03/30 11:50:39;;;;;;;4.43;2.58;;;22.00;36.60;;;;;;5028268;28;20105;-61
2021/03/30 11:53:05;;;;;;;5.35;2.83;;;22.00;35.00;;;;;;5026765;28;20025;-60
2021/03/30 11:55:31;;;;;;;5.25;2.30;;;22.00;35.70;;;;;;5033315;28;20037;-60
2021/03/30 11:57:56;;;;;;;6.85;2.30;;;22.10;36.60;;;;;;5034270;28;20116;-60
2021/03/30 12:05:37;;;;;;;3.83;2.92;;;22.10;34.40;;;;;;4947487;28;19942;-58
2021/03/30 12:08:02;;;;;;;6.88;2.83;;;22.10;34.70;;;;;;4960326;28;20047;-58
2021/03/30 12:10:28;;;;;;;3.33;2.05;;;22.20;34.10;;;;;;4963855;28;20035;-59
2021/03/30 12:12:53;;;;;;;3.58;2.35;;;22.20;34.90;;;;;;4963139;28;20027;-58
2021/03/30 12:15:19;;;;;;;7.10;3.05;;;22.10;32.90;;;;;;4965315;28;20069;-59
2021/03/30 12:17:45;;;;;;;4.40;2.30;;;22.10;32.90;;;;;;4960709;28;20034;-59
2021/03/30 12:20:12;;;;;;;3.50;2.13;;;22.10;32.70;;;;;;4967367;28;20074;-59
2021/03/30 12:22:38;;;;;;;3.05;2.10;;;22.20;32.40;;;;;;4965228;28;20014;-59
2021/03/30 12:25:05;;;;;;;4.25;2.28;;;22.30;33.50;;;;;;4964793;28;20035;-58
2021/03/30 12:27:30;;;;;;;6.00;2.50;;;22.20;32.50;;;;;;4963436;28;20027;-58
2021/03/30 12:29:56;;;;;;;7.50;2.30;;;22.20;32.70;;;;;;4966518;28;20030;-58
2021/03/30 12:32:22;;;;;;;10.35;2.33;;;22.20;33.50;;;;;;4965242;28;20484;-59
2021/03/30 12:34:47;;;;;;;6.95;2.10;;;22.20;34.50;;;;;;4939904;28;20044;-59
2021/03/30 12:37:13;;;;;;;2.20;1.85;;;22.20;32.20;;;;;;4944851;29;20062;-57
2021/03/30 12:39:39;;;;;;;3.45;1.80;;;22.10;31.80;;;;;;4947482;29;20413;-58
2021/03/30 12:42:06;;;;;;;4.50;2.80;;;22.00;30.60;;;;;;4945367;29;20039;-61
2021/03/30 12:44:32;;;;;;;4.93;2.20;;;21.90;30.80;;;;;;4944651;28;20060;-59
2021/03/30 12:46:58;;;;;;;4.18;2.83;;;21.90;31.30;;;;;;4934188;28;20139;-58
2021/03/30 12:49:23;;;;;;;4.00;2.25;;;21.90;31.60;;;;;;4943284;29;20134;-59
2021/03/30 12:51:49;;;;;;;5.95;2.40;;;21.90;31.90;;;;;;4937399;28;20027;-59
2021/03/30 12:54:16;;;;;;;4.85;2.53;;;22.00;33.60;;;;;;4938113;29;20118;-60
2021/03/30 12:56:41;;;;;;;5.03;2.45;;;22.00;31.80;;;;;;4935374;28;20059;-58
2021/03/30 12:59:07;;;;;;;4.82;2.38;;;21.90;30.00;;;;;;4943444;28;20051;-57
2021/03/30 13:01:33;;;;;;;4.97;2.47;;;21.90;32.30;;;;;;4943004;29;20667;-56
2021/03/30 13:03:59;;;;;;;5.55;2.55;;;22.00;31.50;;;;;;4944232;29;20087;-59
2021/03/30 13:06:24;;;;;;;6.13;2.58;;;21.90;31.20;;;;;;4943028;29;20996;-60
2021/03/30 13:08:50;;;;;;;6.20;2.38;;;21.90;31.70;;;;;;4958181;28;20443;-59
2021/03/30 13:11:16;;;;;;;3.38;2.25;;;21.80;30.20;;;;;;4961773;28;20019;-59